createdAt,value
2023-02-16T00:01:19.652Z,6.53
2023-02-16T00:03:48.668Z,6.48
2023-02-16T00:06:17.660Z,6.44
2023-02-16T00:08:48.042Z,6.39
2023-02-16T00:11:41.763Z,6.36
2023-02-16T00:14:12.602Z,6.33
2023-02-16T00:16:41.948Z,6.29
2023-02-16T00:19:30.127Z,6.26
2023-02-16T00:22:01.057Z,6.25
2023-02-16T00:24:31.604Z,6.24
2023-02-16T00:27:02.265Z,6.23
2023-02-16T00:29:33.004Z,6.24
2023-02-16T00:32:04.469Z,6.23
2023-02-16T00:34:36.354Z,6.24
2023-02-16T00:37:07.814Z,6.25
2023-02-16T00:39:37.037Z,6.27
2023-02-16T00:42:13.385Z,6.27
2023-02-16T00:44:46.078Z,6.27
2023-02-16T00:47:21.638Z,6.27
2023-02-16T00:49:52.701Z,6.30
2023-02-16T00:52:34.564Z,6.30
2023-02-16T00:55:05.896Z,6.33
2023-02-16T00:57:40.179Z,6.34
2023-02-16T01:00:18.136Z,6.36
2023-02-16T01:02:49.323Z,6.39
2023-02-16T01:05:17.933Z,6.39
2023-02-16T01:08:04.292Z,6.43
2023-02-16T01:11:05.771Z,6.42
2023-02-16T01:13:43.116Z,6.39
2023-02-16T01:16:16.267Z,6.38
2023-02-16T01:18:44.778Z,6.40
2023-02-16T01:21:13.707Z,6.40
2023-02-16T01:23:42.523Z,6.38
2023-02-16T01:26:16.613Z,6.36
2023-02-16T01:28:47.535Z,6.35
2023-02-16T01:31:16.984Z,6.34
2023-02-16T01:33:45.856Z,6.33
2023-02-16T01:36:25.205Z,6.31
2023-02-16T01:38:53.842Z,6.29
2023-02-16T01:41:33.713Z,6.28
2023-02-16T01:44:06.998Z,6.26
2023-02-16T01:46:44.541Z,6.25
2023-02-16T01:49:15.370Z,6.26
2023-02-16T01:51:59.215Z,6.24
2023-02-16T01:54:40.086Z,6.22
2023-02-16T01:57:23.967Z,6.21
2023-02-16T02:00:11.863Z,6.19
2023-02-16T02:02:44.420Z,6.18
2023-02-16T02:05:36.580Z,6.16
2023-02-16T02:08:22.868Z,6.15
2023-02-16T02:11:09.475Z,6.18
2023-02-16T02:13:42.916Z,6.22
2023-02-16T02:16:13.513Z,6.24
2023-02-16T02:18:41.973Z,6.28
2023-02-16T02:22:00.627Z,6.33
2023-02-16T02:25:07.420Z,6.39
2023-02-16T02:27:42.542Z,6.51
2023-02-16T02:30:34.077Z,6.62
2023-02-16T02:33:32.535Z,6.74
2023-02-16T02:36:16.819Z,6.85
2023-02-16T02:38:58.824Z,6.93
2023-02-16T02:41:50.736Z,6.99
2023-02-16T02:44:26.999Z,7.05
2023-02-16T02:46:55.883Z,7.14
2023-02-16T02:49:24.997Z,7.20
2023-02-16T02:51:53.797Z,7.25
2023-02-16T02:54:43.799Z,7.29
2023-02-16T02:57:36.545Z,7.35
2023-02-16T03:00:29.402Z,7.35
2023-02-16T03:03:03.014Z,7.36
2023-02-16T03:05:34.230Z,7.37
2023-02-16T03:08:15.167Z,7.39
2023-02-16T03:11:06.940Z,7.42
2023-02-16T03:13:40.927Z,7.42
2023-02-16T03:16:15.408Z,7.48
2023-02-16T03:19:04.957Z,7.46
2023-02-16T03:21:52.631Z,7.46
2023-02-16T03:24:43.341Z,7.47
2023-02-16T03:27:30.943Z,7.47
2023-02-16T03:30:01.209Z,7.42
2023-02-16T03:32:31.066Z,7.35
2023-02-16T03:34:59.566Z,7.25
2023-02-16T03:37:28.210Z,7.14
2023-02-16T03:40:14.220Z,7.03
2023-02-16T03:42:51.007Z,6.89
2023-02-16T03:45:20.278Z,6.77
2023-02-16T03:47:50.353Z,6.68
2023-02-16T03:50:19.028Z,6.62
2023-02-16T03:52:47.472Z,6.55
2023-02-16T03:55:16.519Z,6.49
2023-02-16T03:57:45.726Z,6.43
2023-02-16T04:00:15.272Z,6.37
2023-02-16T04:02:43.682Z,6.32
2023-02-16T04:05:13.540Z,6.27
2023-02-16T04:07:42.008Z,6.23
2023-02-16T04:10:10.991Z,6.17
2023-02-16T04:12:38.406Z,6.14
2023-02-16T04:15:09.976Z,6.08
2023-02-16T04:17:38.677Z,6.04
2023-02-16T04:20:11.637Z,6.00
2023-02-16T04:22:41.486Z,5.96
2023-02-16T04:25:10.362Z,5.94
2023-02-16T04:27:39.848Z,5.97
2023-02-16T04:30:13.131Z,6.01
2023-02-16T04:32:42.156Z,6.07
2023-02-16T04:35:11.650Z,6.12
2023-02-16T04:37:41.516Z,6.17
2023-02-16T04:40:13.764Z,6.21
2023-02-16T04:42:42.301Z,6.22
2023-02-16T04:45:12.539Z,6.23
2023-02-16T04:47:41.112Z,6.23
2023-02-16T04:50:10.799Z,6.20
2023-02-16T04:52:41.532Z,6.20
2023-02-16T04:55:11.012Z,6.17
2023-02-16T04:57:40.198Z,6.15
2023-02-16T05:00:12.155Z,6.10
2023-02-16T05:02:40.831Z,6.08
2023-02-16T05:05:10.298Z,6.07
2023-02-16T05:07:40.111Z,6.03
2023-02-16T05:10:09.797Z,6.01
2023-02-16T05:12:55.511Z,6.00
2023-02-16T05:15:23.965Z,6.01
2023-02-16T05:17:52.372Z,6.00
2023-02-16T05:20:40.822Z,6.01
2023-02-16T05:23:10.636Z,6.01
2023-02-16T05:25:39.083Z,6.01
2023-02-16T05:28:07.564Z,6.02
2023-02-16T05:30:36.128Z,6.02
2023-02-16T05:33:04.772Z,6.03
2023-02-16T05:35:34.415Z,6.05
2023-02-16T05:38:02.858Z,6.07
2023-02-16T05:40:32.853Z,6.07
2023-02-16T05:43:01.263Z,6.08
2023-02-16T05:45:29.736Z,6.08
2023-02-16T05:47:58.157Z,6.07
2023-02-16T05:50:26.557Z,6.05
2023-02-16T05:52:55.010Z,6.04
2023-02-16T05:55:23.875Z,6.02
2023-02-16T05:57:53.760Z,6.00
2023-02-16T06:00:22.654Z,5.96
2023-02-16T06:02:51.272Z,5.95
2023-02-16T06:05:19.946Z,5.94
2023-02-16T06:07:48.386Z,5.92
2023-02-16T06:10:17.246Z,5.92
2023-02-16T06:12:46.089Z,5.90
2023-02-16T06:15:16.086Z,5.91
2023-02-16T06:17:44.892Z,5.90
2023-02-16T06:20:14.071Z,5.92
2023-02-16T06:22:42.460Z,5.94
2023-02-16T06:25:11.158Z,5.94
2023-02-16T06:27:39.603Z,5.97
2023-02-16T06:30:09.869Z,5.99
2023-02-16T06:32:39.927Z,6.01
2023-02-16T06:35:10.072Z,6.02
2023-02-16T06:37:38.552Z,6.05
2023-02-16T06:40:10.411Z,6.09
2023-02-16T06:42:39.026Z,6.15
2023-02-16T06:45:08.800Z,6.20
2023-02-16T06:47:37.469Z,6.25
2023-02-16T06:50:10.887Z,6.32
2023-02-16T06:52:39.326Z,6.41
2023-02-16T06:55:09.122Z,6.50
2023-02-16T06:57:37.666Z,6.62
2023-02-16T07:00:08.317Z,6.74
2023-02-16T07:02:37.626Z,6.85
2023-02-16T07:05:08.163Z,6.93
2023-02-16T07:07:36.587Z,7.01
2023-02-16T07:10:05.724Z,7.05
2023-02-16T07:12:34.141Z,7.10
2023-02-16T07:15:02.604Z,7.15
2023-02-16T07:17:31.085Z,7.19
2023-02-16T07:20:00.083Z,7.22
2023-02-16T07:22:30.273Z,7.23
2023-02-16T07:25:00.646Z,7.25
2023-02-16T07:27:29.201Z,7.29
2023-02-16T07:29:57.631Z,7.31
2023-02-16T07:32:26.151Z,7.36
2023-02-16T07:34:54.606Z,7.39
2023-02-16T07:37:23.058Z,7.43
2023-02-16T07:39:53.797Z,7.47
2023-02-16T07:42:22.683Z,7.52
2023-02-16T07:44:51.206Z,7.58
2023-02-16T07:47:19.661Z,7.64
2023-02-16T07:49:48.073Z,7.70
2023-02-16T07:52:16.549Z,7.78
2023-02-16T07:54:45.088Z,7.84
2023-02-16T07:57:14.963Z,7.92
2023-02-16T07:59:43.552Z,7.98
2023-02-16T08:02:18.149Z,8.01
2023-02-16T08:04:46.981Z,8.05
2023-02-16T08:07:16.119Z,8.11
2023-02-16T08:09:45.157Z,8.18
2023-02-16T08:12:16.810Z,8.25
2023-02-16T08:14:46.698Z,8.30
2023-02-16T08:17:17.335Z,8.38
2023-02-16T08:19:46.587Z,8.47
2023-02-16T08:22:15.084Z,8.59
2023-02-16T08:24:43.732Z,8.69
2023-02-16T08:27:14.028Z,8.79
2023-02-16T08:29:42.757Z,8.87
2023-02-16T08:32:13.326Z,8.96
2023-02-16T08:34:43.510Z,9.07
2023-02-16T08:37:14.412Z,9.16
2023-02-16T08:39:43.118Z,9.25
2023-02-16T08:42:14.405Z,9.35
2023-02-16T08:44:43.437Z,9.38
2023-02-16T08:47:12.024Z,9.40
2023-02-16T08:49:40.868Z,9.44
2023-02-16T08:52:10.134Z,9.49
2023-02-16T08:54:38.824Z,9.55
2023-02-16T08:57:07.659Z,9.61
2023-02-16T08:59:37.569Z,9.72
2023-02-16T09:02:06.358Z,9.84
2023-02-16T09:04:36.836Z,9.95
2023-02-16T09:07:05.962Z,10.04
2023-02-16T09:09:34.509Z,10.10
2023-02-16T09:12:03.292Z,10.17
2023-02-16T09:14:31.764Z,10.22
2023-02-16T09:17:03.177Z,10.27
2023-02-16T09:19:31.710Z,10.34
2023-02-16T09:22:00.215Z,10.48
2023-02-16T09:24:28.839Z,10.61
2023-02-16T09:26:57.352Z,10.73
2023-02-16T09:29:25.822Z,10.85
2023-02-16T09:31:56.484Z,10.98
2023-02-16T09:34:27.868Z,11.11
2023-02-16T09:36:56.633Z,11.17
2023-02-16T09:39:25.132Z,11.30
2023-02-16T09:42:24.447Z,11.46
2023-02-16T09:45:02.716Z,11.64
2023-02-16T09:47:34.253Z,11.79
2023-02-16T09:50:08.594Z,11.92
2023-02-16T09:52:41.077Z,12.05
2023-02-16T09:55:15.542Z,12.13
2023-02-16T09:57:59.921Z,12.21
2023-02-16T10:00:44.792Z,12.24
2023-02-16T10:03:34.497Z,12.29
2023-02-16T10:06:26.236Z,12.35
2023-02-16T10:09:00.531Z,12.43
2023-02-16T10:11:46.849Z,12.48
2023-02-16T10:14:30.879Z,12.52
2023-02-16T10:17:13.752Z,12.57
2023-02-16T10:19:50.080Z,12.61
2023-02-16T10:22:34.289Z,12.64
2023-02-16T10:25:07.524Z,12.69
2023-02-16T10:27:41.045Z,12.74
2023-02-16T10:30:18.526Z,12.74
2023-02-16T10:32:57.310Z,12.74
2023-02-16T10:35:38.554Z,12.79
2023-02-16T10:38:15.905Z,12.86
2023-02-16T10:40:56.350Z,12.93
2023-02-16T10:43:39.183Z,12.98
2023-02-16T10:46:08.086Z,13.00
2023-02-16T10:48:36.683Z,13.05
2023-02-16T10:51:10.397Z,13.08
2023-02-16T10:53:46.842Z,13.11
2023-02-16T10:56:49.480Z,13.16
2023-02-16T10:59:21.997Z,13.35
2023-02-16T11:01:54.201Z,13.60
2023-02-16T11:04:39.962Z,13.89
2023-02-16T11:07:12.053Z,14.26
2023-02-16T11:09:44.477Z,14.74
2023-02-16T11:12:29.784Z,15.12
2023-02-16T11:15:04.369Z,15.49
2023-02-16T11:17:48.297Z,15.86
2023-02-16T11:20:29.882Z,16.21
2023-02-16T11:23:22.648Z,16.53
2023-02-16T11:26:00.209Z,16.88
2023-02-16T11:28:33.018Z,17.20
2023-02-16T11:31:17.089Z,17.52
2023-02-16T11:33:58.901Z,17.76
2023-02-16T11:36:34.903Z,17.91
2023-02-16T11:39:08.839Z,18.10
2023-02-16T11:41:44.636Z,18.39
2023-02-16T11:44:28.683Z,18.71
2023-02-16T11:46:59.268Z,18.92
2023-02-16T11:49:34.325Z,19.08
2023-02-16T11:52:19.340Z,19.42
2023-02-16T11:54:50.976Z,19.88
2023-02-16T11:57:27.102Z,20.28
2023-02-16T11:59:56.940Z,20.67
2023-02-16T12:03:11.156Z,20.87
2023-02-16T12:05:55.801Z,21.21
2023-02-16T12:08:37.209Z,21.57
2023-02-16T12:11:38.300Z,21.85
2023-02-16T12:14:36.683Z,21.94
2023-02-16T12:17:20.431Z,22.03
2023-02-16T12:19:57.498Z,22.10
2023-02-16T12:22:34.793Z,22.16
2023-02-16T12:25:22.563Z,21.95
2023-02-16T12:27:57.511Z,21.78
2023-02-16T12:30:42.227Z,21.58
2023-02-16T12:33:43.516Z,21.30
2023-02-16T12:36:43.044Z,21.25
2023-02-16T12:39:23.441Z,21.22
2023-02-16T12:42:19.758Z,21.04
2023-02-16T12:44:52.239Z,20.99
2023-02-16T12:47:31.034Z,21.17
2023-02-16T12:50:04.987Z,21.45
2023-02-16T12:52:40.276Z,21.76
2023-02-16T12:55:20.966Z,22.11
2023-02-16T12:58:00.489Z,22.32
2023-02-16T13:00:42.203Z,22.55
2023-02-16T13:03:28.086Z,22.78
2023-02-16T13:06:12.731Z,23.10
2023-02-16T13:08:46.760Z,23.31
2023-02-16T13:11:24.673Z,23.73
2023-02-16T13:13:58.922Z,24.12
2023-02-16T13:16:39.521Z,24.26
2023-02-16T13:19:13.961Z,24.39
2023-02-16T13:22:53.878Z,24.57
2023-02-16T13:25:48.802Z,24.55
2023-02-16T13:28:43.930Z,24.42
2023-02-16T13:31:34.192Z,24.34
2023-02-16T13:34:44.636Z,24.15
2023-02-16T13:37:42.471Z,23.84
2023-02-16T13:40:59.116Z,23.29
2023-02-16T13:43:33.719Z,22.62
2023-02-16T13:46:08.649Z,22.04
2023-02-16T13:48:47.169Z,21.39
2023-02-16T13:51:20.850Z,20.77
2023-02-16T13:53:57.031Z,20.26
2023-02-16T13:56:37.010Z,19.75
2023-02-16T14:00:00.856Z,19.22
2023-02-16T14:02:56.245Z,18.87
2023-02-16T14:05:37.954Z,18.56
2023-02-16T14:08:24.320Z,18.33
2023-02-16T14:11:12.681Z,18.11
2023-02-16T14:13:51.615Z,17.88
2023-02-16T14:16:34.647Z,17.72
2023-02-16T14:19:17.735Z,17.60
2023-02-16T14:21:49.078Z,17.50
2023-02-16T14:24:33.374Z,17.42
2023-02-16T14:27:04.678Z,17.36
2023-02-16T14:29:36.387Z,17.27
2023-02-16T14:32:23.598Z,17.18
2023-02-16T14:34:58.596Z,17.11
2023-02-16T14:37:39.266Z,17.04
2023-02-16T14:40:23.797Z,16.97
2023-02-16T14:42:57.829Z,16.93
2023-02-16T14:46:07.893Z,16.82
2023-02-16T14:49:44.244Z,16.72
2023-02-16T14:53:18.694Z,16.59
2023-02-16T14:56:16.849Z,16.52
2023-02-16T14:58:57.472Z,16.47
2023-02-16T15:01:26.287Z,16.42
2023-02-16T15:03:58.140Z,16.36
2023-02-16T15:06:35.537Z,16.32
2023-02-16T15:09:15.892Z,16.26
2023-02-16T15:12:09.429Z,16.16
2023-02-16T15:14:45.206Z,16.03
2023-02-16T15:17:29.351Z,15.93
2023-02-16T15:20:04.780Z,15.84
2023-02-16T15:22:33.776Z,15.74
2023-02-16T15:25:06.359Z,15.65
2023-02-16T15:27:36.548Z,15.54
2023-02-16T15:30:18.572Z,15.44
2023-02-16T15:32:53.529Z,15.35
2023-02-16T15:35:30.178Z,15.27
2023-02-16T15:38:10.033Z,15.16
2023-02-16T15:40:39.214Z,15.08
2023-02-16T15:43:30.908Z,15.01
2023-02-16T15:46:02.160Z,14.94
2023-02-16T15:48:33.908Z,14.84
2023-02-16T15:51:12.412Z,14.75
2023-02-16T15:53:50.742Z,14.65
2023-02-16T15:56:33.305Z,14.53
2023-02-16T15:59:07.275Z,14.42
2023-02-16T16:01:36.880Z,14.31
2023-02-16T16:04:21.568Z,14.17
2023-02-16T16:06:52.187Z,14.07
2023-02-16T16:09:26.563Z,13.94
2023-02-16T16:12:00.098Z,13.82
2023-02-16T16:14:31.318Z,13.70
2023-02-16T16:17:00.015Z,13.58
2023-02-16T16:19:36.808Z,13.45
2023-02-16T16:22:30.224Z,13.32
2023-02-16T16:24:59.679Z,13.17
2023-02-16T16:27:36.104Z,13.02
2023-02-16T16:30:27.888Z,12.84
2023-02-16T16:33:06.747Z,12.69
2023-02-16T16:35:40.532Z,12.55
2023-02-16T16:38:24.299Z,12.40
2023-02-16T16:40:55.312Z,12.30
2023-02-16T16:43:29.928Z,12.18
2023-02-16T16:46:15.545Z,12.08
2023-02-16T16:48:48.390Z,11.99
2023-02-16T16:51:23.091Z,11.88
2023-02-16T16:53:57.692Z,11.79
2023-02-16T16:56:26.748Z,11.73
2023-02-16T16:58:58.334Z,11.65
2023-02-16T17:01:31.351Z,11.57
2023-02-16T17:04:03.329Z,11.51
2023-02-16T17:06:35.655Z,11.45
2023-02-16T17:09:06.102Z,11.38
2023-02-16T17:11:38.500Z,11.32
2023-02-16T17:14:12.401Z,11.23
2023-02-16T17:16:49.850Z,11.17
2023-02-16T17:19:22.221Z,11.12
2023-02-16T17:21:52.214Z,11.06
2023-02-16T17:24:22.512Z,11.01
2023-02-16T17:26:52.494Z,10.96
2023-02-16T17:29:23.056Z,10.88
2023-02-16T17:31:54.914Z,10.83
2023-02-16T17:34:29.418Z,10.76
2023-02-16T17:37:03.495Z,10.69
2023-02-16T17:39:34.256Z,10.62
2023-02-16T17:42:16.630Z,10.57
2023-02-16T17:44:46.514Z,10.52
2023-02-16T17:47:20.023Z,10.46
2023-02-16T17:49:50.628Z,10.41
2023-02-16T17:52:20.778Z,10.37
2023-02-16T17:54:51.431Z,10.33
2023-02-16T17:57:20.683Z,10.32
2023-02-16T17:59:50.455Z,10.28
2023-02-16T18:02:22.664Z,10.23
2023-02-16T18:04:54.792Z,10.18
2023-02-16T18:07:26.130Z,10.15
2023-02-16T18:09:58.338Z,10.10
2023-02-16T18:12:28.593Z,10.07
2023-02-16T18:15:02.021Z,10.02
2023-02-16T18:17:36.998Z,9.98
2023-02-16T18:20:08.899Z,9.95
2023-02-16T18:22:38.926Z,9.90
2023-02-16T18:25:16.474Z,9.86
2023-02-16T18:27:47.985Z,9.83
2023-02-16T18:30:22.233Z,9.81
2023-02-16T18:32:58.219Z,9.79
2023-02-16T18:35:32.434Z,9.76
2023-02-16T18:38:06.411Z,9.75
2023-02-16T18:40:37.451Z,9.72
2023-02-16T18:43:10.682Z,9.71
2023-02-16T18:45:45.530Z,9.68
2023-02-16T18:48:22.027Z,9.69
2023-02-16T18:50:52.780Z,9.67
2023-02-16T18:53:23.523Z,9.66
2023-02-16T18:55:55.125Z,9.66
2023-02-16T18:58:25.566Z,9.65
2023-02-16T19:00:57.372Z,9.63
2023-02-16T19:03:30.901Z,9.62
2023-02-16T19:06:01.540Z,9.62
2023-02-16T19:08:32.526Z,9.62
2023-02-16T19:11:04.351Z,9.63
2023-02-16T19:13:36.362Z,9.62
2023-02-16T19:16:09.734Z,9.63
2023-02-16T19:18:43.204Z,9.64
2023-02-16T19:21:16.237Z,9.64
2023-02-16T19:23:46.338Z,9.64
2023-02-16T19:26:20.657Z,9.64
2023-02-16T19:28:52.045Z,9.63
2023-02-16T19:31:26.149Z,9.64
2023-02-16T19:34:00.040Z,9.64
2023-02-16T19:36:34.646Z,9.66
2023-02-16T19:39:08.934Z,9.66
2023-02-16T19:41:43.665Z,9.66
2023-02-16T19:44:15.876Z,9.68
2023-02-16T19:46:46.101Z,9.69
2023-02-16T19:49:17.717Z,9.70
2023-02-16T19:51:47.885Z,9.74
2023-02-16T19:54:20.441Z,9.79
2023-02-16T19:56:54.302Z,9.97
2023-02-16T19:59:25.113Z,10.16
2023-02-16T20:01:57.732Z,10.38
2023-02-16T20:04:30.636Z,10.61
2023-02-16T20:06:59.976Z,10.85
2023-02-16T20:09:30.064Z,11.04
2023-02-16T20:12:00.491Z,11.24
2023-02-16T20:14:32.399Z,11.42
2023-02-16T20:17:03.264Z,11.58
2023-02-16T20:19:35.304Z,11.75
2023-02-16T20:22:06.175Z,11.90
2023-02-16T20:24:40.557Z,12.04
2023-02-16T20:27:11.145Z,12.16
2023-02-16T20:29:41.668Z,12.24
2023-02-16T20:32:12.659Z,12.34
2023-02-16T20:34:47.029Z,12.40
2023-02-16T20:37:17.440Z,12.46
2023-02-16T20:39:48.850Z,12.51
2023-02-16T20:42:19.218Z,12.58
2023-02-16T20:44:49.129Z,12.64
2023-02-16T20:47:19.836Z,12.70
2023-02-16T20:49:51.057Z,12.73
2023-02-16T20:52:21.483Z,12.78
2023-02-16T20:54:52.081Z,12.79
2023-02-16T20:57:27.203Z,12.82
2023-02-16T20:59:58.988Z,12.83
2023-02-16T21:02:29.862Z,12.86
2023-02-16T21:05:03.252Z,12.85
2023-02-16T21:07:33.509Z,12.87
2023-02-16T21:10:04.936Z,12.88
2023-02-16T21:12:34.148Z,12.89
2023-02-16T21:15:04.672Z,12.89
2023-02-16T21:17:34.701Z,12.89
2023-02-16T21:20:08.380Z,12.90
2023-02-16T21:22:39.479Z,12.92
2023-02-16T21:25:09.730Z,12.92
2023-02-16T21:27:43.498Z,12.91
2023-02-16T21:30:14.333Z,12.94
2023-02-16T21:32:44.130Z,12.95
2023-02-16T21:35:14.531Z,12.95
2023-02-16T21:37:44.021Z,12.97
2023-02-16T21:40:32.739Z,12.98
2023-02-16T21:43:03.646Z,12.97
2023-02-16T21:45:33.413Z,12.98
2023-02-16T21:48:19.545Z,12.98
2023-02-16T21:50:49.443Z,12.98
2023-02-16T21:53:18.142Z,12.98
2023-02-16T21:56:04.590Z,12.98
2023-02-16T21:58:34.871Z,12.92
2023-02-16T22:01:03.837Z,12.85
2023-02-16T22:03:32.436Z,12.77
2023-02-16T22:06:04.732Z,12.67
2023-02-16T22:08:37.931Z,12.60
2023-02-16T22:11:08.952Z,12.53
2023-02-16T22:13:38.455Z,12.64
2023-02-16T22:16:15.071Z,12.50
2023-02-16T22:18:44.033Z,12.44
2023-02-16T22:21:14.208Z,12.37
2023-02-16T22:23:43.163Z,12.30
2023-02-16T22:26:23.736Z,12.22
2023-02-16T22:28:52.393Z,12.17
2023-02-16T22:31:22.677Z,12.12
2023-02-16T22:33:56.913Z,12.07
2023-02-16T22:36:27.392Z,12.03
2023-02-16T22:38:56.846Z,11.99
2023-02-16T22:41:25.719Z,11.95
2023-02-16T22:43:55.295Z,11.91
2023-02-16T22:46:25.339Z,11.87
2023-02-16T22:48:54.286Z,11.84
2023-02-16T22:51:23.353Z,11.84
2023-02-16T22:53:53.235Z,11.81
2023-02-16T22:56:21.800Z,11.80
2023-02-16T22:58:50.372Z,11.78
2023-02-16T23:01:21.895Z,11.76
2023-02-16T23:03:53.540Z,11.76
2023-02-16T23:06:25.249Z,11.76
2023-02-16T23:08:58.361Z,11.71
2023-02-16T23:11:27.949Z,11.76
2023-02-16T23:13:56.641Z,11.74
2023-02-16T23:16:27.671Z,11.73
2023-02-16T23:18:57.919Z,11.76
2023-02-16T23:21:29.397Z,11.77
2023-02-16T23:24:00.216Z,11.77
2023-02-16T23:26:31.766Z,11.79
2023-02-16T23:29:03.947Z,11.83
2023-02-16T23:31:34.530Z,11.89
2023-02-16T23:34:03.643Z,11.95
2023-02-16T23:36:32.739Z,12.02
2023-02-16T23:39:05.519Z,12.05
2023-02-16T23:41:34.203Z,12.08
2023-02-16T23:44:02.695Z,12.10
2023-02-16T23:46:31.423Z,12.11
2023-02-16T23:48:59.861Z,12.11
2023-02-16T23:51:28.947Z,12.09
2023-02-16T23:53:57.658Z,12.06
2023-02-16T23:56:29.603Z,12.01
2023-02-16T23:59:01.062Z,11.94
